Time;durP1;ratioP1;P1;durP2;ratioP2;P2;SDS_P1;SDS_P2;PMS_P1;PMS_P2;Temp;Humidity;BMP_temperature;BMP_pressure;BME280_temperature;BME280_humidity;BME280_pressure;Samples;Min_cycle;Max_cycle;Signal;HPM_P1;HPM_P2
2022/08/13 00:01:22;;;;;;;;;;;19.10;99.00;;;;;;6207743;22;19923;-84
2022/08/13 00:03:49;;;;;;;;;;;19.10;99.40;;;;;;6209617;22;19919;-84
2022/08/13 00:06:55;;;;;;;;;;;19.00;99.90;;;;;;6207954;22;19969;-84
2022/08/13 00:09:08;;;;;;;;;;;18.80;99.90;;;;;;6212818;22;19920;-84
2022/08/13 00:14:23;;;;;;;;;;;;;;;;;;6210395;22;19930;-84
2022/08/13 00:16:49;;;;;;;;;;;;;;;;;;6208836;22;19919;-84
2022/08/13 00:19:26;;;;;;;;;;;;;;;;;;6232953;22;19919;-84
2022/08/13 00:21:52;;;;;;;;;;;;;;;;;;6207495;22;19969;-84
2022/08/13 00:24:18;;;;;;;;;;;;;;;;;;6231504;22;19919;-84
2022/08/13 00:26:44;;;;;;;;;;;;;;;;;;6206745;22;20221;-85
2022/08/13 00:29:10;;;;;;;;;;;;;;;;;;6235332;22;19929;-84
2022/08/13 00:31:37;;;;;;;;;;;;;;;;;;6208013;22;19926;-84
2022/08/13 00:34:04;;;;;;;;;;;;;;;;;;6229856;22;20187;-84
2022/08/13 00:36:31;;;;;;;;;;;;;;;;;;6234625;22;19925;-84
2022/08/13 00:38:58;;;;;;;;;;;;;;;;;;6211429;22;19915;-84
2022/08/13 00:41:41;;;;;;;;;;;;;;;;;;6205541;22;19919;-84
2022/08/13 00:44:08;;;;;;;;;;;;;;;;;;6207352;22;19960;-84
2022/08/13 00:46:34;;;;;;;;;;;;;;;;;;6234392;22;20336;-84
2022/08/13 00:49:05;;;;;;;;;;;;;;;;;;6234957;22;20340;-84
2022/08/13 00:51:42;;;;;;;;;;;;;;;;;;6237962;22;19927;-85
2022/08/13 00:54:09;;;;;;;;;;;;;;;;;;6209518;22;19927;-84
2022/08/13 00:56:36;;;;;;;;;;;;;;;;;;6212499;22;19938;-85
2022/08/13 00:59:07;;;;;;;;;;;;;;;;;;6235395;22;19990;-84
2022/08/13 01:01:35;;;;;;;;;;;;;;;;;;6234818;22;19957;-85
2022/08/13 01:04:04;;;;;;;;;;;17.90;99.00;;;;;;6211899;22;19947;-85
2022/08/13 01:06:41;;;;;;;;;;;19.00;99.90;;;;;;6212329;22;20255;-85
2022/08/13 01:09:12;;;;;;;;;;;18.80;99.90;;;;;;6182891;22;20349;-84
2022/08/13 01:11:39;;;;;;;;;;;17.90;99.90;;;;;;6209893;22;20290;-85
2022/08/13 01:14:07;;;;;;;;;;;17.80;99.90;;;;;;6178767;22;19969;-84
2022/08/13 01:16:36;;;;;;;;;;;17.70;99.90;;;;;;6210509;22;20258;-85
2022/08/13 01:19:09;;;;;;;;;;;17.70;99.90;;;;;;6210990;22;19982;-84
2022/08/13 01:22:03;;;;;;;;;;;17.30;99.90;;;;;;6184194;22;19919;-84
2022/08/13 01:24:28;;;;;;;;;;;17.60;99.90;;;;;;6227228;22;19953;-84
2022/08/13 01:26:56;;;;;;;;;;;17.60;99.90;;;;;;6210651;22;19915;-84
2022/08/13 01:29:23;;;;;;;;;;;17.50;99.90;;;;;;6182115;22;19973;-84
2022/08/13 01:31:54;;;;;;;;;;;17.60;99.90;;;;;;6212167;22;19923;-85
2022/08/13 01:34:22;;;;;;;;;;;17.50;99.90;;;;;;6209126;22;19927;-84
2022/08/13 01:36:49;;;;;;;;;;;17.50;99.90;;;;;;6210540;22;19919;-85
2022/08/13 01:39:16;;;;;;;;;;;17.50;99.90;;;;;;6182655;22;19941;-85
2022/08/13 01:41:44;;;;;;;;;;;17.40;99.90;;;;;;6183995;22;19930;-85
2022/08/13 01:44:14;;;;;;;;;;;17.40;99.90;;;;;;6181500;22;19927;-85
2022/08/13 01:52:20;;;;;;;;;;;17.30;99.90;;;;;;6239554;22;19998;-84
2022/08/13 01:54:47;;;;;;;;;;;17.30;99.90;;;;;;6186839;22;20332;-84
2022/08/13 01:57:15;;;;;;;;;;;17.30;99.90;;;;;;6231036;22;19986;-84
2022/08/13 01:59:48;;;;;;;;;;;17.30;99.90;;;;;;6187879;22;20347;-84
2022/08/13 02:02:19;;;;;;;;;;;17.00;99.90;;;;;;6209415;22;20390;-84
2022/08/13 02:04:48;;;;;;;;;;;17.20;99.90;;;;;;6184815;22;19919;-84
2022/08/13 02:07:31;;;;;;;;;;;17.20;99.90;;;;;;6235562;22;20307;-84
2022/08/13 02:09:58;;;;;;;;;;;17.10;99.90;;;;;;6208585;22;19947;-84
2022/08/13 02:12:26;;;;;;;;;;;17.20;99.90;;;;;;6183788;22;19919;-85
2022/08/13 02:14:54;;;;;;;;;;;17.20;99.90;;;;;;6211271;22;20002;-85
2022/08/13 02:17:27;;;;;;;;;;;17.20;99.90;;;;;;6181840;22;19973;-84
2022/08/13 02:19:57;;;;;;;;;;;17.10;99.90;;;;;;6185287;22;19915;-84
2022/08/13 02:22:24;;;;;;;;;;;17.10;99.90;;;;;;6183160;22;20958;-84
2022/08/13 02:24:52;;;;;;;;;;;17.10;99.90;;;;;;6258546;22;20002;-84
2022/08/13 02:27:21;;;;;;;;;;;17.10;99.90;;;;;;6207025;22;20295;-84
2022/08/13 02:29:48;;;;;;;;;;;17.00;99.90;;;;;;6183634;22;20328;-84
2022/08/13 02:32:18;;;;;;;;;;;17.00;99.90;;;;;;6205403;22;19923;-84
2022/08/13 02:34:45;;;;;;;;;;;17.00;99.90;;;;;;6185550;22;19968;-84
2022/08/13 02:37:15;;;;;;;;;;;16.90;99.90;;;;;;6205576;22;19926;-83
2022/08/13 02:39:42;;;;;;;;;;;16.90;99.90;;;;;;6207609;22;19930;-83
2022/08/13 02:42:09;;;;;;;;;;;16.90;99.90;;;;;;6204641;22;19919;-82
2022/08/13 02:44:35;;;;;;;;;;;16.90;99.90;;;;;;6235384;22;19923;-83
2022/08/13 02:47:02;;;;;;;;;;;16.90;99.90;;;;;;6207251;22;19923;-83
2022/08/13 02:49:31;;;;;;;;;;;16.80;99.90;;;;;;6208552;22;19969;-83
2022/08/13 02:51:57;;;;;;;;;;;16.80;99.90;;;;;;6208695;22;19919;-84
2022/08/13 02:54:23;;;;;;;;;;;16.80;99.90;;;;;;6230141;22;20712;-84
2022/08/13 02:56:49;;;;;;;;;;;16.80;99.90;;;;;;6208399;22;19919;-83
2022/08/13 02:59:14;;;;;;;;;;;16.70;99.90;;;;;;6204668;22;20329;-83
2022/08/13 03:01:40;;;;;;;;;;;16.70;99.90;;;;;;6185214;22;19923;-83
2022/08/13 03:04:07;;;;;;;;;;;16.70;99.90;;;;;;6210064;22;19951;-84
2022/08/13 03:06:32;;;;;;;;;;;16.70;99.90;;;;;;6210522;22;19919;-84
2022/08/13 03:09:00;;;;;;;;;;;16.60;99.90;;;;;;6209569;22;19926;-83
2022/08/13 03:11:26;;;;;;;;;;;16.60;99.90;;;;;;6183156;22;19926;-83
2022/08/13 03:13:53;;;;;;;;;;;16.60;99.90;;;;;;6210774;22;19923;-84
2022/08/13 03:16:21;;;;;;;;;;;16.50;99.90;;;;;;6182295;22;19921;-83
2022/08/13 03:18:47;;;;;;;;;;;16.60;99.90;;;;;;6212097;22;19926;-83
2022/08/13 03:21:15;;;;;;;;;;;16.60;99.90;;;;;;6207580;22;19920;-83
2022/08/13 03:23:43;;;;;;;;;;;16.60;99.90;;;;;;6206843;22;20741;-84
2022/08/13 03:26:11;;;;;;;;;;;16.60;99.90;;;;;;6207558;22;19919;-83
2022/08/13 03:29:23;;;;;;;;;;;16.50;99.90;;;;;;6232871;22;19994;-84
2022/08/13 03:31:52;;;;;;;;;;;16.50;99.90;;;;;;6236651;22;19915;-85
2022/08/13 03:34:20;;;;;;;;;;;16.50;99.90;;;;;;6181546;22;19929;-83
2022/08/13 03:36:46;;;;;;;;;;;16.40;99.90;;;;;;6211298;22;19919;-84
2022/08/13 03:39:13;;;;;;;;;;;16.60;99.90;;;;;;6186170;22;19919;-85
2022/08/13 03:41:45;;;;;;;;;;;17.20;99.90;;;;;;6214622;22;19919;-84
2022/08/13 03:44:11;;;;;;;;;;;16.00;99.90;;;;;;6187995;22;19993;-84
2022/08/13 03:46:38;;;;;;;;;;;17.00;99.90;;;;;;6190134;22;20233;-84
2022/08/13 03:49:05;;;;;;;;;;;14.70;99.90;;;;;;6186142;22;20329;-84
2022/08/13 03:51:31;;;;;;;;;;;16.80;99.90;;;;;;6215340;22;20243;-84
2022/08/13 03:54:07;;;;;;;;;;;17.00;99.90;;;;;;6214344;22;20030;-84
2022/08/13 03:56:33;;;;;;;;;;;16.70;99.90;;;;;;6190018;22;20237;-84
2022/08/13 03:59:02;;;;;;;;;;;16.60;99.90;;;;;;6215078;22;19964;-84
2022/08/13 04:01:33;;;;;;;;;;;15.50;99.90;;;;;;6187296;22;19919;-84
2022/08/13 04:04:05;;;;;;;;;;;15.30;99.90;;;;;;6188717;22;20235;-84
2022/08/13 04:06:31;;;;;;;;;;;16.60;99.90;;;;;;6215181;22;20240;-84
2022/08/13 04:08:59;;;;;;;;;;;16.10;99.90;;;;;;6189881;22;19915;-84
2022/08/13 04:11:25;;;;;;;;;;;16.40;99.90;;;;;;6212095;22;19915;-84
2022/08/13 04:13:51;;;;;;;;;;;16.30;99.90;;;;;;6212315;22;19992;-84
2022/08/13 04:16:20;;;;;;;;;;;16.40;99.90;;;;;;6209206;22;19915;-84
2022/08/13 04:18:46;;;;;;;;;;;16.30;99.90;;;;;;6211640;22;20226;-84
2022/08/13 04:21:12;;;;;;;;;;;16.30;99.90;;;;;;6186189;22;19927;-84
2022/08/13 04:23:43;;;;;;;;;;;16.30;99.90;;;;;;6187532;22;19986;-84
2022/08/13 04:26:13;;;;;;;;;;;16.80;99.90;;;;;;6211477;22;19919;-84
2022/08/13 04:28:41;;;;;;;;;;;16.40;99.90;;;;;;6187594;22;19919;-84
2022/08/13 04:31:09;;;;;;;;;;;16.20;99.90;;;;;;6210441;22;20033;-84
2022/08/13 04:33:38;;;;;;;;;;;16.70;99.90;;;;;;6187887;22;19923;-84
2022/08/13 04:36:07;;;;;;;;;;;16.10;99.90;;;;;;6187032;22;19922;-85
2022/08/13 04:38:33;;;;;;;;;;;17.70;99.90;;;;;;6213484;22;19919;-84
2022/08/13 04:40:58;;;;;;;;;;;15.30;99.90;;;;;;6213393;22;19921;-84
2022/08/13 04:43:24;;;;;;;;;;;16.30;99.90;;;;;;6210825;22;19954;-84
2022/08/13 04:45:58;;;;;;;;;;;16.10;99.90;;;;;;6188900;22;19923;-84
2022/08/13 04:48:23;;;;;;;;;;;15.30;99.90;;;;;;6208550;22;20363;-85
2022/08/13 04:50:49;;;;;;;;;;;16.40;99.90;;;;;;6211581;22;19919;-84
2022/08/13 04:53:26;;;;;;;;;;;16.50;99.90;;;;;;6185322;22;20344;-84
2022/08/13 04:55:52;;;;;;;;;;;16.00;99.90;;;;;;6214502;22;19926;-84
2022/08/13 04:58:18;;;;;;;;;;;16.80;99.90;;;;;;6185722;22;20108;-84
2022/08/13 05:00:44;;;;;;;;;;;16.10;99.90;;;;;;6186830;22;19923;-84
2022/08/13 05:03:10;;;;;;;;;;;16.10;99.90;;;;;;6206794;22;20354;-84
2022/08/13 05:05:43;;;;;;;;;;;16.00;99.90;;;;;;6212995;22;19923;-84
2022/08/13 05:08:09;;;;;;;;;;;16.30;99.90;;;;;;6211451;22;19926;-85
2022/08/13 05:13:45;;;;;;;;;;;16.20;99.90;;;;;;6236211;22;19927;-84
2022/08/13 05:35:21;;;;;;;;;;;16.40;99.90;;;;;;6264460;22;19927;-84
2022/08/13 05:37:47;;;;;;;;;;;16.40;99.90;;;;;;6190294;22;19926;-84
2022/08/13 05:40:15;;;;;;;;;;;16.60;99.90;;;;;;6186313;22;19915;-84
2022/08/13 05:42:40;;;;;;;;;;;16.30;99.90;;;;;;6240649;22;19915;-84
2022/08/13 05:45:07;;;;;;;;;;;16.30;99.90;;;;;;6186962;22;19919;-84
2022/08/13 05:47:36;;;;;;;;;;;16.40;99.90;;;;;;6215703;22;19919;-84
2022/08/13 05:50:13;;;;;;;;;;;16.80;99.90;;;;;;6191320;22;19919;-84
2022/08/13 05:52:39;;;;;;;;;;;16.40;99.90;;;;;;6192892;22;19920;-84
2022/08/13 05:55:06;;;;;;;;;;;17.00;99.90;;;;;;6184598;22;20365;-84
2022/08/13 05:57:32;;;;;;;;;;;15.60;99.90;;;;;;6190517;22;19915;-84
2022/08/13 06:05:31;;;;;;;;;;;17.10;99.90;;;;;;6219926;22;19925;-84
2022/08/13 06:07:57;;;;;;;;;;;16.80;99.90;;;;;;6267036;22;20306;-84
2022/08/13 06:10:23;;;;;;;;;;;16.80;99.90;;;;;;6213092;22;19919;-84
2022/08/13 06:12:51;;;;;;;;;;;16.80;99.90;;;;;;6215524;22;19943;-84
2022/08/13 06:15:22;;;;;;;;;;;16.80;99.90;;;;;;6237504;22;19919;-84
2022/08/13 06:17:52;;;;;;;;;;;17.70;99.90;;;;;;6242439;22;19957;-84
2022/08/13 06:20:21;;;;;;;;;;;17.40;99.90;;;;;;6238568;22;19926;-84
2022/08/13 06:22:50;;;;;;;;;;;17.10;99.90;;;;;;6240569;22;19926;-84
2022/08/13 06:25:24;;;;;;;;;;;17.50;99.90;;;;;;6239158;22;20251;-85
2022/08/13 06:27:52;;;;;;;;;;;16.50;99.90;;;;;;6216395;22;19926;-84
2022/08/13 06:30:18;;;;;;;;;;;17.30;99.90;;;;;;6237558;22;19919;-85
2022/08/13 06:32:44;;;;;;;;;;;17.40;99.90;;;;;;6265961;22;19922;-84
2022/08/13 06:35:09;;;;;;;;;;;17.50;99.90;;;;;;6235677;22;19923;-84
2022/08/13 06:37:35;;;;;;;;;;;17.60;99.90;;;;;;6240133;22;19969;-84
2022/08/13 06:40:01;;;;;;;;;;;16.40;99.90;;;;;;6239913;22;19916;-84
2022/08/13 06:42:28;;;;;;;;;;;17.80;99.90;;;;;;6211777;22;19915;-84
2022/08/13 06:44:58;;;;;;;;;;;18.10;99.90;;;;;;6239655;22;20233;-84
2022/08/13 06:47:25;;;;;;;;;;;18.20;99.90;;;;;;6237400;22;19931;-84
2022/08/13 06:49:51;;;;;;;;;;;18.40;99.90;;;;;;6240418;22;20390;-84
2022/08/13 06:52:17;;;;;;;;;;;18.60;99.90;;;;;;6211680;22;19916;-84
2022/08/13 06:54:42;;;;;;;;;;;19.30;99.90;;;;;;6214321;22;20332;-84
2022/08/13 06:57:08;;;;;;;;;;;18.70;99.90;;;;;;6235120;22;19918;-84
2022/08/13 06:59:34;;;;;;;;;;;18.50;99.90;;;;;;6237857;22;19942;-84
2022/08/13 07:02:00;;;;;;;;;;;18.70;99.90;;;;;;6209710;22;19923;-84
2022/08/13 07:04:26;;;;;;;;;;;18.80;99.90;;;;;;6211063;22;19945;-84
2022/08/13 07:06:52;;;;;;;;;;;18.80;99.90;;;;;;6214411;22;20375;-84
2022/08/13 07:09:18;;;;;;;;;;;18.90;99.50;;;;;;6211623;22;19922;-84
2022/08/13 07:11:46;;;;;;;;;;;19.40;99.90;;;;;;6240300;22;20382;-84
2022/08/13 07:14:15;;;;;;;;;;;20.90;99.90;;;;;;6213075;22;19929;-84
2022/08/13 07:16:42;;;;;;;;;;;19.50;99.00;;;;;;6239933;22;19994;-84
2022/08/13 07:19:11;;;;;;;;;;;19.50;98.50;;;;;;6235847;22;19919;-84
2022/08/13 07:21:37;;;;;;;;;;;19.70;98.40;;;;;;6239508;22;19950;-84
2022/08/13 07:24:06;;;;;;;;;;;19.90;97.70;;;;;;6213792;22;19919;-84
2022/08/13 07:26:33;;;;;;;;;;;20.20;96.20;;;;;;6238456;22;19919;-84
2022/08/13 07:29:00;;;;;;;;;;;21.00;96.70;;;;;;6240504;22;19916;-84
2022/08/13 07:31:29;;;;;;;;;;;20.50;96.10;;;;;;6209145;22;19990;-84
2022/08/13 07:33:59;;;;;;;;;;;20.80;94.80;;;;;;6263722;22;20001;-84
2022/08/13 07:36:29;;;;;;;;;;;21.40;95.70;;;;;;6236771;22;19923;-84
2022/08/13 07:38:55;;;;;;;;;;;21.40;97.00;;;;;;6265163;22;19997;-84
2022/08/13 07:41:21;;;;;;;;;;;21.70;99.70;;;;;;6235906;22;19915;-84
2022/08/13 07:43:47;;;;;;;;;;;21.90;99.90;;;;;;6214472;22;19930;-84
2022/08/13 07:46:17;;;;;;;;;;;22.00;95.40;;;;;;6212960;22;20050;-84
2022/08/13 07:48:43;;;;;;;;;;;;;;;;;;6239272;22;19919;-84
2022/08/13 07:51:19;;;;;;;;;;;22.50;89.60;;;;;;6236257;22;20008;-84
2022/08/13 07:53:46;;;;;;;;;;;22.70;90.00;;;;;;6215361;22;20367;-84
2022/08/13 07:56:12;;;;;;;;;;;23.00;87.00;;;;;;6211436;22;19927;-84
2022/08/13 07:58:37;;;;;;;;;;;23.30;85.70;;;;;;6237102;22;19919;-84
2022/08/13 08:01:05;;;;;;;;;;;23.60;80.90;;;;;;6205758;22;19915;-84
2022/08/13 08:03:40;;;;;;;;;;;23.90;82.20;;;;;;6239426;22;20333;-84
2022/08/13 08:06:08;;;;;;;;;;;23.90;81.40;;;;;;6213613;22;19919;-84
2022/08/13 08:08:34;;;;;;;;;;;24.40;78.20;;;;;;6215635;22;19926;-84
2022/08/13 08:11:01;;;;;;;;;;;24.60;73.50;;;;;;6213578;22;20308;-84
2022/08/13 08:13:26;;;;;;;;;;;24.90;71.40;;;;;;6211451;22;20320;-84
2022/08/13 08:15:52;;;;;;;;;;;24.90;69.60;;;;;;6212750;22;19927;-84
2022/08/13 08:18:18;;;;;;;;;;;25.50;69.10;;;;;;6233882;22;20322;-84
2022/08/13 08:20:44;;;;;;;;;;;25.80;72.80;;;;;;6211402;22;19972;-84
2022/08/13 08:23:10;;;;;;;;;;;26.20;79.20;;;;;;6236186;22;19926;-84
2022/08/13 08:25:36;;;;;;;;;;;26.80;60.90;;;;;;6213759;22;20331;-84
2022/08/13 08:28:04;;;;;;;;;;;26.30;65.10;;;;;;6239487;22;19980;-85
2022/08/13 08:30:30;;;;;;;;;;;26.50;61.40;;;;;;6234279;22;19915;-84
2022/08/13 08:32:56;;;;;;;;;;;26.70;61.30;;;;;;6211189;22;19994;-84
2022/08/13 08:35:29;;;;;;;;;;;26.90;61.80;;;;;;6210518;22;19923;-84
2022/08/13 08:43:36;;;;;;;;;;;27.60;57.50;;;;;;6238058;22;20616;-84
2022/08/13 08:46:05;;;;;;;;;;;27.90;55.40;;;;;;6235969;22;19919;-84
2022/08/13 08:48:32;;;;;;;;;;;28.00;60.40;;;;;;6207535;22;20335;-84
2022/08/13 08:50:58;;;;;;;;;;;;;;;;;;6209404;22;19919;-84
2022/08/13 08:53:27;;;;;;;;;;;28.30;51.60;;;;;;6229896;22;19919;-84
2022/08/13 08:55:53;;;;;;;;;;;28.40;49.10;;;;;;6238451;22;19925;-84
2022/08/13 08:58:19;;;;;;;;;;;28.60;55.20;;;;;;6212181;22;19919;-84
2022/08/13 09:00:47;;;;;;;;;;;28.60;48.70;;;;;;6210146;22;19919;-83
2022/08/13 09:03:14;;;;;;;;;;;28.80;48.70;;;;;;6205721;22;19923;-84
2022/08/13 09:05:40;;;;;;;;;;;28.90;47.30;;;;;;6238123;22;19919;-85
2022/08/13 09:08:06;;;;;;;;;;;29.10;50.90;;;;;;6209776;22;19922;-85
2022/08/13 09:10:35;;;;;;;;;;;29.20;47.20;;;;;;6211077;22;19990;-85
2022/08/13 09:13:02;;;;;;;;;;;29.30;47.40;;;;;;6209746;22;19946;-85
2022/08/13 09:15:28;;;;;;;;;;;29.50;44.30;;;;;;6232950;22;20385;-85
2022/08/13 09:17:53;;;;;;;;;;;29.60;47.70;;;;;;6210470;22;19919;-86
2022/08/13 09:20:22;;;;;;;;;;;29.80;44.80;;;;;;6209468;22;19923;-84
2022/08/13 09:22:48;;;;;;;;;;;29.90;44.80;;;;;;6211187;22;19965;-85
2022/08/13 09:25:20;;;;;;;;;;;30.10;44.60;;;;;;6208195;22;19997;-86
2022/08/13 09:27:58;;;;;;;;;;;30.20;45.10;;;;;;6261258;22;19919;-85
2022/08/13 09:30:39;;;;;;;;;;;30.40;46.00;;;;;;6202046;22;19973;-85
2022/08/13 09:33:09;;;;;;;;;;;30.50;43.90;;;;;;6229238;22;19986;-85
2022/08/13 09:35:35;;;;;;;;;;;30.70;42.50;;;;;;6260639;22;19927;-84
2022/08/13 09:38:00;;;;;;;;;;;30.80;43.90;;;;;;6234228;22;19926;-84
2022/08/13 09:40:27;;;;;;;;;;;30.90;41.80;;;;;;6208101;22;19919;-85
2022/08/13 09:42:57;;;;;;;;;;;31.10;39.50;;;;;;6209935;22;19973;-85
2022/08/13 09:45:28;;;;;;;;;;;31.20;40.30;;;;;;6206916;22;20350;-85
2022/08/13 09:47:54;;;;;;;;;;;31.30;40.40;;;;;;6233153;22;19995;-85
2022/08/13 09:50:21;;;;;;;;;;;31.40;40.70;;;;;;6208149;22;19947;-85
2022/08/13 09:52:47;;;;;;;;;;;31.40;40.10;;;;;;6235833;22;20354;-85
2022/08/13 09:55:13;;;;;;;;;;;31.40;40.30;;;;;;6206478;22;19930;-84
2022/08/13 09:57:50;;;;;;;;;;;31.60;40.00;;;;;;6236197;22;19919;-84
2022/08/13 10:00:22;;;;;;;;;;;31.70;39.30;;;;;;6209479;22;20297;-83
2022/08/13 10:02:54;;;;;;;;;;;31.70;38.30;;;;;;6265102;22;19919;-84
2022/08/13 10:05:20;;;;;;;;;;;31.70;38.10;;;;;;6260282;22;19984;-85
2022/08/13 10:07:46;;;;;;;;;;;31.80;39.00;;;;;;6215056;22;19946;-84
2022/08/13 10:10:12;;;;;;;;;;;32.00;42.40;;;;;;6238252;22;19919;-84
2022/08/13 10:12:38;;;;;;;;;;;32.00;38.60;;;;;;6210636;22;19915;-84
2022/08/13 10:15:04;;;;;;;;;;;32.00;38.60;;;;;;6235195;22;19930;-84
2022/08/13 10:17:49;;;;;;;;;;;32.00;39.00;;;;;;6210758;22;19920;-84
2022/08/13 10:20:33;;;;;;;;;;;32.20;35.80;;;;;;6205936;22;19942;-85
2022/08/13 10:23:00;;;;;;;;;;;32.20;35.70;;;;;;6233643;22;19919;-84
2022/08/13 10:25:25;;;;;;;;;;;32.30;36.60;;;;;;6231319;22;19920;-84
2022/08/13 10:27:54;;;;;;;;;;;32.40;33.20;;;;;;6210086;22;20237;-84
2022/08/13 10:30:24;;;;;;;;;;;32.40;34.10;;;;;;6206206;22;19919;-84
2022/08/13 10:32:53;;;;;;;;;;;32.50;35.60;;;;;;6209618;22;20324;-85
2022/08/13 10:35:19;;;;;;;;;;;32.60;35.40;;;;;;6208961;22;20245;-84
2022/08/13 10:37:49;;;;;;;;;;;32.50;35.90;;;;;;6259713;22;20323;-84
2022/08/13 10:40:15;;;;;;;;;;;32.50;35.50;;;;;;6229372;22;19946;-84
2022/08/13 10:42:44;;;;;;;;;;;32.60;35.50;;;;;;6207502;22;19919;-85
2022/08/13 10:45:14;;;;;;;;;;;32.60;36.30;;;;;;6212104;22;19919;-85
2022/08/13 10:47:47;;;;;;;;;;;32.80;34.50;;;;;;6211884;22;19919;-85
2022/08/13 10:50:13;;;;;;;;;;;32.90;35.30;;;;;;6234473;22;19934;-84
2022/08/13 10:52:39;;;;;;;;;;;33.00;36.20;;;;;;6208675;22;19946;-85
2022/08/13 10:55:08;;;;;;;;;;;32.90;32.60;;;;;;6206314;22;19923;-85
2022/08/13 10:57:36;;;;;;;;;;;32.80;33.30;;;;;;6207212;22;19919;-85
2022/08/13 11:00:01;;;;;;;;;;;32.80;33.80;;;;;;6209445;22;20598;-86
2022/08/13 11:02:31;;;;;;;;;;;32.90;34.00;;;;;;6210102;22;19919;-85
2022/08/13 11:04:57;;;;;;;;;;;32.80;32.40;;;;;;6209744;22;20037;-85
2022/08/13 11:07:25;;;;;;;;;;;32.80;33.10;;;;;;6205883;22;19993;-85
2022/08/13 11:09:51;;;;;;;;;;;32.80;32.90;;;;;;6236520;22;19938;-86
2022/08/13 11:12:19;;;;;;;;;;;32.80;31.70;;;;;;6207430;22;20403;-85
2022/08/13 11:14:46;;;;;;;;;;;32.90;33.50;;;;;;6235371;22;19927;-85
2022/08/13 11:17:17;;;;;;;;;;;33.00;34.00;;;;;;6231505;22;19923;-85
2022/08/13 11:19:45;;;;;;;;;;;33.00;32.60;;;;;;6235684;22;19919;-85
2022/08/13 11:22:11;;;;;;;;;;;33.20;33.60;;;;;;6257904;22;20445;-85
2022/08/13 11:24:37;;;;;;;;;;;33.30;33.10;;;;;;6234151;22;19920;-85
2022/08/13 11:27:04;;;;;;;;;;;33.40;33.70;;;;;;6206668;22;19924;-86
2022/08/13 11:29:30;;;;;;;;;;;33.40;34.50;;;;;;6210016;22;19927;-85
2022/08/13 11:31:56;;;;;;;;;;;33.30;33.30;;;;;;6235328;22;19919;-85
2022/08/13 11:34:21;;;;;;;;;;;33.30;33.60;;;;;;6233095;22;19945;-85
2022/08/13 11:36:47;;;;;;;;;;;33.50;32.10;;;;;;6233748;22;19919;-85
2022/08/13 11:39:13;;;;;;;;;;;33.50;32.90;;;;;;6229760;22;20014;-85
2022/08/13 11:41:38;;;;;;;;;;;33.50;31.40;;;;;;6257103;22;19926;-85
2022/08/13 11:44:04;;;;;;;;;;;33.40;31.30;;;;;;6204665;22;20088;-85
2022/08/13 11:46:30;;;;;;;;;;;33.50;31.20;;;;;;6205368;22;19919;-84
2022/08/13 11:48:55;;;;;;;;;;;33.50;32.30;;;;;;6252878;22;19958;-85
2022/08/13 13:42:16;;;;;;;;;;;32.80;32.20;;;;;;6195082;23;19927;-87
2022/08/13 13:44:42;;;;;;;;;;;32.90;31.60;;;;;;6175072;23;19920;-86
2022/08/13 13:47:07;;;;;;;;;;;33.00;31.90;;;;;;6149719;23;19996;-86
2022/08/13 13:49:33;;;;;;;;;;;33.00;32.80;;;;;;6178876;23;19999;-86
2022/08/13 13:51:59;;;;;;;;;;;33.10;32.80;;;;;;6177961;23;19931;-87
2022/08/13 13:54:24;;;;;;;;;;;33.00;32.90;;;;;;6150355;23;19920;-87
2022/08/13 13:56:50;;;;;;;;;;;32.90;32.40;;;;;;6178920;23;19924;-86
2022/08/13 13:59:15;;;;;;;;;;;33.00;33.00;;;;;;6177046;23;20035;-88
2022/08/13 14:01:41;;;;;;;;;;;33.10;32.50;;;;;;6153255;23;19966;-87
2022/08/13 14:04:07;;;;;;;;;;;33.20;32.10;;;;;;6174225;23;20307;-87
2022/08/13 14:06:34;;;;;;;;;;;33.20;32.60;;;;;;6171018;23;19990;-86
2022/08/13 14:09:00;;;;;;;;;;;33.30;32.10;;;;;;6207260;23;19920;-87
2022/08/13 14:11:26;;;;;;;;;;;33.40;33.00;;;;;;6177333;23;20503;-86
2022/08/13 14:17:30;;;;;;;;;;;33.60;33.10;;;;;;6109492;23;20020;-85
2022/08/13 14:19:58;;;;;;;;;;;33.60;32.60;;;;;;6091485;23;20464;-85
2022/08/13 14:22:24;;;;;;;;;;;33.50;30.20;;;;;;6154653;23;19926;-85
2022/08/13 14:24:49;;;;;;;;;;;33.30;32.60;;;;;;6230654;23;19923;-85
2022/08/13 14:27:15;;;;;;;;;;;33.30;30.10;;;;;;6176852;23;19954;-85
2022/08/13 14:29:41;;;;;;;;;;;33.50;32.00;;;;;;6208557;23;19916;-85
2022/08/13 14:32:06;;;;;;;;;;;33.50;31.50;;;;;;6203635;23;20604;-85
2022/08/13 14:34:34;;;;;;;;;;;33.60;32.00;;;;;;6206323;23;19919;-86
2022/08/13 14:37:00;;;;;;;;;;;33.30;30.40;;;;;;6206825;23;19927;-86
2022/08/13 14:39:26;;;;;;;;;;;33.30;32.00;;;;;;6181170;23;19941;-85
2022/08/13 14:41:52;;;;;;;;;;;33.20;31.70;;;;;;6206731;23;19931;-85
2022/08/13 14:44:18;;;;;;;;;;;33.00;31.30;;;;;;6230341;23;19924;-84
2022/08/13 14:46:44;;;;;;;;;;;32.80;31.20;;;;;;6207520;23;20010;-86
2022/08/13 14:49:19;;;;;;;;;;;32.90;31.70;;;;;;6226303;23;19923;-86
2022/08/13 16:10:58;;;;;;;;;;;32.80;33.50;;;;;;6235380;22;20915;-86
2022/08/13 16:13:24;;;;;;;;;;;32.80;33.90;;;;;;6204186;22;19923;-86
2022/08/13 16:15:52;;;;;;;;;;;32.80;33.60;;;;;;6206525;22;19930;-87
2022/08/13 16:18:18;;;;;;;;;;;32.90;33.40;;;;;;6200817;22;19957;-87
2022/08/13 16:20:44;;;;;;;;;;;32.90;33.30;;;;;;6181506;22;19978;-86
2022/08/13 16:23:12;;;;;;;;;;;32.90;33.00;;;;;;6177308;22;20391;-86
2022/08/13 16:25:38;;;;;;;;;;;32.90;33.80;;;;;;6233215;22;20395;-87
2022/08/13 16:28:05;;;;;;;;;;;32.80;33.90;;;;;;6178210;22;19984;-87
2022/08/13 16:30:32;;;;;;;;;;;32.80;33.40;;;;;;6203116;22;19930;-86
2022/08/13 16:32:59;;;;;;;;;;;32.60;33.20;;;;;;6177089;22;19954;-86
2022/08/13 16:35:25;;;;;;;;;;;32.40;33.50;;;;;;6197653;22;20395;-87
2022/08/13 16:37:55;;;;;;;;;;;32.30;34.00;;;;;;6173674;22;19930;-86
2022/08/13 16:40:22;;;;;;;;;;;32.10;34.40;;;;;;6197190;22;20259;-87
2022/08/13 16:42:48;;;;;;;;;;;31.90;35.50;;;;;;6173976;22;19972;-86
2022/08/13 16:45:15;;;;;;;;;;;31.70;35.60;;;;;;6225513;22;19919;-86
2022/08/13 16:47:42;;;;;;;;;;;31.60;36.20;;;;;;6202049;22;19923;-86
2022/08/13 16:50:09;;;;;;;;;;;31.40;36.70;;;;;;6176579;22;19919;-86
2022/08/13 16:52:35;;;;;;;;;;;31.20;37.10;;;;;;6200529;22;20252;-85
2022/08/13 16:55:01;;;;;;;;;;;31.00;37.50;;;;;;6178849;22;19923;-85
2022/08/13 16:57:26;;;;;;;;;;;30.80;38.50;;;;;;6176289;22;20328;-86
2022/08/13 16:59:52;;;;;;;;;;;30.70;38.60;;;;;;6203646;22;19919;-86
2022/08/13 17:02:23;;;;;;;;;;;30.50;38.80;;;;;;6170181;22;19919;-86
2022/08/13 17:10:22;;;;;;;;;;;30.20;40.60;;;;;;6175961;23;20328;-86
2022/08/13 17:12:48;;;;;;;;;;;30.30;40.20;;;;;;6194198;23;19947;-86
2022/08/13 17:15:20;;;;;;;;;;;30.40;40.10;;;;;;6176447;22;19924;-86
2022/08/13 17:17:46;;;;;;;;;;;30.50;40.00;;;;;;6249115;22;20233;-86
2022/08/13 17:20:14;;;;;;;;;;;30.50;39.60;;;;;;6175344;22;19919;-85
2022/08/13 17:22:43;;;;;;;;;;;30.60;39.50;;;;;;6227896;22;19965;-86
2022/08/13 17:25:08;;;;;;;;;;;30.60;39.50;;;;;;6201392;22;19921;-86
2022/08/13 17:27:36;;;;;;;;;;;30.50;39.50;;;;;;6181171;22;20453;-86
2022/08/13 17:30:07;;;;;;;;;;;30.50;39.50;;;;;;6228613;22;20016;-86
2022/08/13 17:32:34;;;;;;;;;;;30.40;39.20;;;;;;6203027;22;19926;-87
2022/08/13 17:35:01;;;;;;;;;;;30.30;40.60;;;;;;6202284;22;19998;-86
2022/08/13 17:37:27;;;;;;;;;;;30.20;39.80;;;;;;6199749;22;20029;-86
2022/08/13 17:39:53;;;;;;;;;;;30.10;39.90;;;;;;6203084;22;20299;-86
2022/08/13 17:42:18;;;;;;;;;;;30.00;40.30;;;;;;6203712;22;19990;-86
2022/08/13 17:44:45;;;;;;;;;;;29.90;40.70;;;;;;6202001;22;20307;-86
2022/08/13 17:47:11;;;;;;;;;;;29.90;40.90;;;;;;6199955;22;20585;-87
2022/08/13 17:49:37;;;;;;;;;;;29.90;41.40;;;;;;6178456;22;19919;-87
2022/08/13 17:52:03;;;;;;;;;;;29.90;41.70;;;;;;6202689;22;19921;-87
2022/08/13 17:54:28;;;;;;;;;;;29.80;41.60;;;;;;6255129;22;20384;-87
2022/08/13 17:56:54;;;;;;;;;;;29.80;41.70;;;;;;6180658;22;20238;-87
2022/08/13 17:59:19;;;;;;;;;;;29.70;42.30;;;;;;6179601;22;20475;-86
2022/08/13 18:01:45;;;;;;;;;;;29.70;42.10;;;;;;6181978;22;20002;-86
2022/08/13 18:04:12;;;;;;;;;;;29.50;42.50;;;;;;6207262;22;19958;-87
2022/08/13 18:06:37;;;;;;;;;;;29.50;42.90;;;;;;6234884;22;19915;-87
2022/08/13 18:09:12;;;;;;;;;;;29.40;43.20;;;;;;6182165;22;20562;-86
2022/08/13 18:11:38;;;;;;;;;;;29.30;43.70;;;;;;6182734;22;19927;-87
2022/08/13 18:14:04;;;;;;;;;;;29.20;43.60;;;;;;6206884;22;19927;-87
2022/08/13 18:16:29;;;;;;;;;;;29.00;44.10;;;;;;6182396;22;19982;-87
2022/08/13 18:18:55;;;;;;;;;;;28.90;44.80;;;;;;6182956;22;19926;-87
2022/08/13 18:21:21;;;;;;;;;;;28.80;44.10;;;;;;6183511;22;19946;-87
2022/08/13 18:23:46;;;;;;;;;;;28.70;44.30;;;;;;6211857;22;19926;-87
2022/08/13 18:26:12;;;;;;;;;;;28.60;44.50;;;;;;6234212;22;19919;-87
2022/08/13 18:28:38;;;;;;;;;;;28.50;44.70;;;;;;6184957;22;20316;-87
2022/08/13 18:31:06;;;;;;;;;;;28.40;45.30;;;;;;6180791;22;19919;-87